Pfugerville's Hourly Summary for Thursday, March 16, 2017
Hour Temp
(f)
RH
(%)
Solar Rad.
(MJ/m2)
Rainfall
(in)
Wind
(mph)
3/16/2017 12:00 AM 60 77 0 0 6.59
3/16/2017 1:00 AM 59 93 0 0 7.58
3/16/2017 2:00 AM 58 99 0 0 8.5
3/16/2017 3:00 AM 57 100 0 0 6.67
3/16/2017 4:00 AM 57 100 0 0 4.67
3/16/2017 5:00 AM 57 100 0 0 5.27
3/16/2017 6:00 AM 56 100 0 0 3.26
3/16/2017 7:00 AM 56 100 0 0.01 3.18
3/16/2017 8:00 AM 56 100 0 0 4.18
3/16/2017 9:00 AM 57 100 0.09 0 6.05
3/16/2017 10:00 AM 58 100 0.28 0 7.81
3/16/2017 11:00 AM 60 100 0.38 0 5.63
3/16/2017 12:00 PM 63 100 0.44 0 3.82
3/16/2017 1:00 PM 67 100 0.8 0 8.13
3/16/2017 2:00 PM 70 99 1.25 0 12.28
3/16/2017 3:00 PM 72 92 1.63 0 11.03
3/16/2017 4:00 PM 74 80 1.55 0 12.12
3/16/2017 5:00 PM 75 74 1.08 0 12.4
3/16/2017 6:00 PM 76 72 0.79 0 11.94
3/16/2017 7:00 PM 75 73 0.35 0 11.23
3/16/2017 8:00 PM 73 77 0.05 0 9.52
3/16/2017 9:00 PM 70 84 0 0 8.42
3/16/2017 10:00 PM 68 93 0 0 11
3/16/2017 11:00 PM 67 99 0 0 11.11
Data Summary 64 92 8.69 0.01 8.02